Time;durP1;ratioP1;P1;durP2;ratioP2;P2;SDS_P1;SDS_P2;PMS_P1;PMS_P2;Temp;Humidity;BMP_temperature;BMP_pressure;BME280_temperature;BME280_humidity;BME280_pressure;Samples;Min_cycle;Max_cycle;Signal;HPM_P1;HPM_P2
2022/11/23 00:00:56;;;;;;;3.77;1.90;;;;;;;5.83;85.31;99209.00;5022035;28;20253;-83
2022/11/23 00:03:22;;;;;;;4.57;2.07;;;;;;;5.83;85.12;99197.59;5024617;28;20210;-83
2022/11/23 00:05:50;;;;;;;3.33;2.20;;;;;;;5.83;85.19;99195.78;5027191;28;20207;-83
2022/11/23 00:08:17;;;;;;;4.03;2.20;;;;;;;5.81;85.69;99196.84;5025585;28;20202;-83
2022/11/23 00:10:43;;;;;;;4.80;2.10;;;;;;;5.79;85.17;99202.22;5030784;28;20241;-83
2022/11/23 00:13:09;;;;;;;3.13;1.87;;;;;;;5.77;85.72;99201.47;5031773;28;20210;-83
2022/11/23 00:15:36;;;;;;;5.40;1.90;;;;;;;5.76;85.56;99205.06;5025889;28;20206;-83
2022/11/23 00:18:02;;;;;;;4.33;2.07;;;;;;;5.74;85.55;99206.97;5024622;28;20211;-84
2022/11/23 00:20:29;;;;;;;7.07;1.80;;;;;;;5.73;85.36;99207.09;5025499;28;20714;-83
2022/11/23 00:22:57;;;;;;;4.63;2.00;;;;;;;5.71;85.85;99214.25;5026524;28;20592;-83
2022/11/23 00:25:23;;;;;;;4.57;1.83;;;;;;;5.66;85.79;99219.84;5027512;28;20207;-83
2022/11/23 00:27:50;;;;;;;3.10;2.03;;;;;;;5.65;85.90;99222.59;5028585;28;20292;-83
2022/11/23 00:30:17;;;;;;;5.63;2.00;;;;;;;5.63;86.06;99222.69;5029826;28;20236;-82
2022/11/23 00:32:43;;;;;;;6.23;2.40;;;;;;;5.63;86.40;99227.13;5023130;28;20203;-83
2022/11/23 00:35:10;;;;;;;4.27;2.00;;;;;;;5.61;86.31;99221.94;5029655;28;20251;-83
2022/11/23 00:37:36;;;;;;;7.07;2.50;;;;;;;5.60;86.52;99225.53;5029783;28;20207;-83
2022/11/23 00:40:05;;;;;;;4.17;2.23;;;;;;;5.59;86.74;99218.53;5027500;28;20223;-83
2022/11/23 00:42:32;;;;;;;2.80;1.80;;;;;;;5.56;86.75;99214.31;5025547;28;20207;-83
2022/11/23 00:44:58;;;;;;;5.07;2.13;;;;;;;5.54;86.77;99213.59;5028502;28;20211;-83
2022/11/23 00:47:25;;;;;;;6.83;1.97;;;;;;;5.53;86.75;99214.53;5030903;28;20205;-83
2022/11/23 00:49:51;;;;;;;2.50;1.70;;;;;;;5.50;86.84;99214.72;5032234;28;20230;-83
2022/11/23 00:52:18;;;;;;;3.90;1.87;;;;;;;5.47;86.91;99212.28;5027689;28;20782;-83
2022/11/23 00:54:44;;;;;;;4.47;1.80;;;;;;;5.46;86.76;99213.22;5027811;28;20222;-83
2022/11/23 00:57:12;;;;;;;3.47;1.93;;;;;;;5.44;87.17;99211.63;5030751;28;20210;-83
2022/11/23 00:59:38;;;;;;;2.10;1.70;;;;;;;5.41;87.29;99207.38;5024390;28;20225;-83
2022/11/23 01:02:05;;;;;;;6.07;2.07;;;;;;;5.39;87.34;99214.56;5026496;28;20554;-83
2022/11/23 01:04:31;;;;;;;4.13;1.70;;;;;;;5.38;87.60;99214.66;5043899;28;20694;-83
2022/11/23 01:06:58;;;;;;;2.67;1.60;;;;;;;5.35;87.43;99205.16;5036663;28;20230;-83
2022/11/23 01:09:25;;;;;;;3.50;1.80;;;;;;;5.33;87.66;99204.41;5026930;28;20222;-83
2022/11/23 01:11:52;;;;;;;2.43;1.37;;;;;;;5.31;87.67;99190.47;5038801;28;20625;-83
2022/11/23 01:14:21;;;;;;;2.87;1.87;;;;;;;5.31;87.85;99198.38;5047172;28;20201;-83
2022/11/23 01:16:48;;;;;;;4.70;2.03;;;;;;;5.31;88.07;99193.09;5034208;28;20210;-83
2022/11/23 01:19:16;;;;;;;2.77;1.73;;;;;;;5.30;88.15;99196.69;5045866;28;20209;-83
2022/11/23 01:21:43;;;;;;;2.90;1.80;;;;;;;5.29;88.25;99195.00;5044742;28;20248;-83
2022/11/23 01:24:12;;;;;;;4.07;1.80;;;;;;;5.27;88.23;99193.41;5040545;28;20654;-83
2022/11/23 01:26:40;;;;;;;5.13;2.10;;;;;;;5.23;88.48;99200.66;5040007;28;20202;-82
2022/11/23 01:29:06;;;;;;;4.20;2.00;;;;;;;5.23;88.67;99213.84;5043463;28;20755;-83
2022/11/23 01:31:34;;;;;;;3.53;1.70;;;;;;;5.19;89.19;99215.88;5043540;28;20206;-83
2022/11/23 01:34:02;;;;;;;2.63;1.80;;;;;;;5.20;89.25;99216.69;5040580;28;20225;-83
2022/11/23 01:36:30;;;;;;;3.37;2.00;;;;;;;5.19;89.19;99217.66;5044962;28;20221;-83
2022/11/23 01:38:58;;;;;;;4.47;1.90;;;;;;;5.16;89.25;99216.06;5048741;28;20198;-83
2022/11/23 01:41:29;;;;;;;3.80;1.80;;;;;;;5.15;89.37;99218.81;5036614;28;20232;-83
2022/11/23 01:43:56;;;;;;;2.83;1.53;;;;;;;5.14;89.18;99214.47;5038470;28;20679;-83
2022/11/23 01:46:23;;;;;;;6.83;2.13;;;;;;;5.13;89.66;99231.25;5033976;28;20198;-83
2022/11/23 01:48:58;;;;;;;6.17;1.60;;;;;;;5.12;89.35;99226.91;5043623;28;20205;-83
2022/11/23 01:51:28;;;;;;;4.30;1.80;;;;;;;5.12;89.86;99219.00;5042721;28;20201;-82
2022/11/23 01:54:00;;;;;;;4.03;2.07;;;;;;;5.12;89.79;99229.53;5046059;28;20201;-83
2022/11/23 01:56:33;;;;;;;3.50;1.83;;;;;;;5.11;89.90;99230.50;5039718;28;20205;-83
2022/11/23 01:59:04;;;;;;;3.30;1.73;;;;;;;5.10;89.78;99231.44;5029791;28;20199;-83
2022/11/23 02:01:31;;;;;;;4.43;1.60;;;;;;;5.10;90.34;99241.97;5029128;28;20223;-83
2022/11/23 02:04:01;;;;;;;4.87;1.57;;;;;;;5.07;90.09;99237.75;5034728;28;20206;-83
2022/11/23 02:06:28;;;;;;;3.33;1.80;;;;;;;5.04;90.20;99230.00;5039640;28;20661;-83
2022/11/23 02:08:56;;;;;;;3.23;1.93;;;;;;;5.03;90.11;99235.38;5045811;28;20198;-83
2022/11/23 02:11:22;;;;;;;2.37;1.30;;;;;;;5.01;90.27;99234.66;5033317;28;20228;-83
2022/11/23 02:13:51;;;;;;;4.00;1.50;;;;;;;4.98;90.35;99235.69;5039053;28;20307;-83
2022/11/23 02:16:18;;;;;;;4.43;2.00;;;;;;;4.95;90.65;99238.53;5041136;28;20217;-83
2022/11/23 02:18:48;;;;;;;3.47;1.70;;;;;;;4.94;90.44;99238.63;5033330;28;20213;-82
2022/11/23 02:21:16;;;;;;;3.10;1.70;;;;;;;4.94;90.73;99243.91;5039298;28;20229;-83
2022/11/23 02:23:51;;;;;;;4.33;1.63;;;;;;;4.92;90.79;99241.34;5030552;28;20668;-83
2022/11/23 02:26:23;;;;;;;3.00;1.90;;;;;;;4.92;90.65;99245.78;5039632;28;20206;-83
2022/11/23 02:28:53;;;;;;;2.50;1.97;;;;;;;4.89;90.74;99239.75;5038093;28;20198;-83
2022/11/23 02:31:20;;;;;;;8.37;2.50;;;;;;;4.90;91.07;99243.22;5045141;28;20229;-83
2022/11/23 02:33:47;;;;;;;4.03;1.40;;;;;;;4.91;90.83;99237.03;5043600;28;20552;-83
2022/11/23 02:36:36;;;;;;;4.47;1.70;;;;;;;4.92;91.25;99237.88;5046330;28;20680;-83
2022/11/23 02:39:09;;;;;;;3.57;2.00;;;;;;;4.93;91.53;99244.84;5036805;28;20217;-83
2022/11/23 02:41:39;;;;;;;4.07;1.77;;;;;;;4.92;91.44;99236.06;5043756;28;20210;-83
2022/11/23 02:44:11;;;;;;;4.90;1.70;;;;;;;4.94;92.03;99236.84;5040275;28;20705;-83
2022/11/23 02:46:38;;;;;;;3.30;1.50;;;;;;;4.95;92.16;99230.63;5033325;28;20653;-83
2022/11/23 02:49:04;;;;;;;3.67;1.80;;;;;;;4.98;92.61;99235.69;5034297;28;20248;-83
2022/11/23 02:51:31;;;;;;;4.30;2.30;;;;;;;5.01;92.63;99232.03;5034109;28;20225;-83
2022/11/23 02:53:57;;;;;;;2.80;1.43;;;;;;;5.05;92.83;99229.06;5039122;28;20199;-83
2022/11/23 02:56:24;;;;;;;2.43;1.50;;;;;;;5.10;93.13;99228.78;5032171;28;20206;-83
2022/11/23 02:58:51;;;;;;;4.83;2.43;;;;;;;5.13;93.48;99234.72;5033116;28;20206;-83
2022/11/23 03:01:18;;;;;;;4.93;1.80;;;;;;;5.15;93.59;99232.00;5040924;28;20579;-83
2022/11/23 03:03:44;;;;;;;2.97;2.03;;;;;;;5.18;93.63;99223.88;5045002;28;20205;-83
2022/11/23 03:06:11;;;;;;;6.27;2.10;;;;;;;5.20;93.79;99228.09;5029556;28;20214;-83
2022/11/23 03:08:38;;;;;;;3.43;1.63;;;;;;;5.25;94.00;99219.88;5040838;28;20202;-83
2022/11/23 03:11:04;;;;;;;3.27;1.50;;;;;;;5.29;94.44;99224.03;5042605;28;20229;-83
2022/11/23 03:13:31;;;;;;;4.80;2.00;;;;;;;5.33;94.39;99222.91;5040641;28;20224;-83
2022/11/23 03:15:58;;;;;;;3.73;1.50;;;;;;;5.36;94.63;99229.78;5040810;28;20208;-84
2022/11/23 03:18:26;;;;;;;2.77;1.60;;;;;;;5.38;94.46;99222.56;5041180;28;20212;-83
2022/11/23 03:20:52;;;;;;;6.27;2.67;;;;;;;5.41;94.62;99231.16;5046176;28;20228;-83
2022/11/23 03:23:19;;;;;;;2.13;1.47;;;;;;;5.42;94.78;99227.56;5041828;28;20213;-83
2022/11/23 03:25:45;;;;;;;2.83;1.83;;;;;;;5.47;95.11;99228.13;5048468;28;20201;-83
2022/11/23 03:28:12;;;;;;;5.37;2.13;;;;;;;5.52;95.06;99226.03;5041704;28;20557;-83
2022/11/23 03:30:38;;;;;;;4.80;2.00;;;;;;;5.61;95.65;99223.72;5048028;28;20730;-83
2022/11/23 03:33:06;;;;;;;5.70;1.70;;;;;;;5.68;95.46;99228.53;5041965;28;20209;-83
2022/11/23 03:35:32;;;;;;;5.13;1.73;;;;;;;5.75;95.61;99223.66;5026852;28;20210;-83
2022/11/23 03:37:59;;;;;;;4.07;1.67;;;;;;;5.79;95.25;99220.72;5025370;28;20198;-83
2022/11/23 03:40:25;;;;;;;4.20;2.03;;;;;;;5.85;95.66;99219.47;5027510;28;20597;-83
2022/11/23 03:42:52;;;;;;;3.77;1.70;;;;;;;5.90;95.60;99212.13;5032961;28;20583;-83
2022/11/23 03:45:18;;;;;;;5.70;1.80;;;;;;;5.95;95.29;99220.56;5028740;28;20776;-83
2022/11/23 03:47:45;;;;;;;5.63;2.43;;;;;;;6.00;95.44;99207.91;5027944;28;20229;-83
2022/11/23 03:50:13;;;;;;;7.47;1.83;;;;;;;6.04;94.83;99219.97;5025470;28;20229;-83
2022/11/23 03:52:39;;;;;;;3.70;1.60;;;;;;;6.08;94.55;99213.53;5026150;28;20210;-83
2022/11/23 03:55:06;;;;;;;5.00;1.67;;;;;;;6.09;94.61;99212.56;5027210;28;20210;-83
2022/11/23 03:57:33;;;;;;;4.23;2.07;;;;;;;6.11;94.22;99215.09;5035248;28;20669;-83
2022/11/23 03:59:59;;;;;;;2.93;1.70;;;;;;;6.13;94.24;99219.34;5045708;28;20583;-83
2022/11/23 04:02:26;;;;;;;6.30;2.67;;;;;;;6.14;93.94;99223.66;5024001;28;20202;-83
2022/11/23 04:04:52;;;;;;;5.07;1.63;;;;;;;6.16;93.32;99218.28;5034286;28;20285;-83
2022/11/23 04:07:20;;;;;;;5.50;1.77;;;;;;;6.17;93.64;99223.47;5048932;28;20210;-83
2022/11/23 04:09:47;;;;;;;4.03;1.77;;;;;;;6.19;92.95;99220.72;5041473;28;20234;-83
2022/11/23 04:12:13;;;;;;;3.67;1.77;;;;;;;6.16;92.56;99224.41;5046072;28;20208;-83
2022/11/23 04:14:40;;;;;;;5.17;1.67;;;;;;;6.15;92.63;99229.81;5034195;28;20202;-82
2022/11/23 04:17:06;;;;;;;6.57;2.07;;;;;;;6.11;92.63;99225.66;5044760;28;20205;-82
2022/11/23 04:19:33;;;;;;;4.30;1.70;;;;;;;6.07;92.05;99222.41;5039981;28;20217;-82
2022/11/23 04:22:01;;;;;;;2.97;1.90;;;;;;;6.03;92.21;99214.78;5043293;28;20199;-82
2022/11/23 04:24:29;;;;;;;5.30;1.60;;;;;;;5.99;92.07;99211.50;5044368;28;20205;-83
2022/11/23 04:26:55;;;;;;;3.73;1.43;;;;;;;5.95;92.02;99217.94;5028020;28;20551;-83
2022/11/23 04:29:22;;;;;;;9.73;2.00;;;;;;;5.91;91.66;99219.94;5048130;28;20229;-83
2022/11/23 04:31:48;;;;;;;5.93;2.37;;;;;;;5.90;91.74;99228.81;5023765;28;20222;-83
2022/11/23 04:34:15;;;;;;;4.63;1.50;;;;;;;5.90;91.76;99223.53;5045415;28;20719;-83
2022/11/23 04:36:41;;;;;;;4.47;1.93;;;;;;;5.91;91.74;99219.09;5041957;28;20210;-83
2022/11/23 04:39:08;;;;;;;5.33;2.00;;;;;;;5.92;92.16;99221.63;5040137;28;20210;-83
2022/11/23 04:41:36;;;;;;;5.40;1.80;;;;;;;5.92;92.21;99226.91;5047630;28;20208;-83
2022/11/23 04:44:02;;;;;;;3.27;1.43;;;;;;;5.96;91.89;99224.06;5041087;28;20209;-83
2022/11/23 04:46:29;;;;;;;9.60;2.50;;;;;;;5.94;92.06;99226.81;5030203;28;20217;-83
2022/11/23 04:48:55;;;;;;;2.63;1.33;;;;;;;5.97;92.06;99221.31;5035452;28;20209;-82
2022/11/23 04:51:22;;;;;;;3.17;1.40;;;;;;;5.93;91.75;99225.97;5041823;28;20252;-82
2022/11/23 04:53:48;;;;;;;3.10;1.63;;;;;;;5.96;92.35;99219.63;5033942;28;20208;-82
2022/11/23 04:56:15;;;;;;;4.77;1.40;;;;;;;5.98;91.80;99223.00;5035070;28;20564;-83
2022/11/23 04:58:43;;;;;;;5.30;1.63;;;;;;;5.99;92.39;99232.63;5031470;28;20202;-83
2022/11/23 05:01:09;;;;;;;3.80;1.37;;;;;;;5.99;91.85;99224.72;5030992;28;20947;-83
2022/11/23 05:03:36;;;;;;;3.17;1.43;;;;;;;5.97;92.32;99228.41;5029873;28;20214;-83
2022/11/23 05:06:03;;;;;;;4.30;1.97;;;;;;;5.96;92.04;99230.19;5028545;28;20211;-82
2022/11/23 05:08:30;;;;;;;2.97;1.60;;;;;;;5.96;91.77;99227.56;5027261;28;20568;-83
2022/11/23 05:10:58;;;;;;;5.23;1.73;;;;;;;5.94;92.02;99224.16;5033407;28;20235;-82
2022/11/23 05:13:25;;;;;;;5.60;1.67;;;;;;;5.92;91.55;99231.34;5033945;28;20210;-83
2022/11/23 05:15:53;;;;;;;3.73;1.50;;;;;;;5.93;91.68;99225.97;5032418;28;20205;-82
2022/11/23 05:18:19;;;;;;;2.77;1.43;;;;;;;5.93;91.57;99239.16;5036484;28;20688;-83
2022/11/23 05:20:46;;;;;;;4.20;1.53;;;;;;;5.92;91.85;99234.84;5020477;28;20706;-83
2022/11/23 05:23:12;;;;;;;8.07;2.13;;;;;;;5.96;91.58;99239.91;5035351;28;20202;-83
2022/11/23 05:25:39;;;;;;;4.63;1.70;;;;;;;5.95;91.81;99235.56;5028431;28;20210;-83
2022/11/23 05:28:05;;;;;;;2.83;1.53;;;;;;;5.93;91.55;99225.09;5029534;28;20728;-83
2022/11/23 05:30:32;;;;;;;2.57;1.53;;;;;;;5.93;92.32;99243.59;5028359;28;20592;-83
2022/11/23 05:33:02;;;;;;;6.10;1.90;;;;;;;5.91;92.04;99235.78;5025434;28;20310;-83
2022/11/23 05:35:28;;;;;;;2.93;1.50;;;;;;;5.95;92.21;99238.22;5030107;28;20648;-83
2022/11/23 05:37:55;;;;;;;5.23;1.80;;;;;;;5.97;92.00;99239.81;5048403;28;20202;-83
2022/11/23 05:40:22;;;;;;;5.10;1.30;;;;;;;5.99;92.36;99234.44;5038657;28;20218;-83
2022/11/23 05:42:48;;;;;;;2.70;1.50;;;;;;;5.99;92.25;99242.34;5025930;28;20202;-83
2022/11/23 05:45:15;;;;;;;7.67;1.90;;;;;;;6.01;91.78;99236.03;5023256;28;20207;-83
2022/11/23 05:47:41;;;;;;;4.00;1.47;;;;;;;5.98;92.49;99249.44;5032966;28;20579;-83
2022/11/23 05:50:10;;;;;;;5.47;1.90;;;;;;;5.99;91.93;99251.13;5037755;28;20607;-83
2022/11/23 05:52:36;;;;;;;4.70;1.90;;;;;;;5.99;92.24;99256.41;5037531;28;20644;-83
2022/11/23 05:55:02;;;;;;;7.80;2.50;;;;;;;6.00;91.99;99255.47;5040183;28;20214;-83
2022/11/23 05:57:29;;;;;;;5.73;2.47;;;;;;;6.02;92.10;99250.09;5031712;28;20201;-83
2022/11/23 05:59:55;;;;;;;3.10;1.67;;;;;;;6.03;91.99;99249.13;5034978;28;20234;-83
2022/11/23 06:02:22;;;;;;;4.90;1.70;;;;;;;6.04;92.30;99256.13;5029392;28;20206;-83
2022/11/23 06:04:48;;;;;;;6.20;2.23;;;;;;;6.05;92.21;99257.81;5044905;28;20211;-83
2022/11/23 06:07:16;;;;;;;6.27;2.17;;;;;;;6.08;92.45;99253.19;5043675;28;20202;-81
2022/11/23 06:09:43;;;;;;;4.27;1.57;;;;;;;6.12;91.99;99253.78;5040606;28;20242;-83
2022/11/23 06:12:09;;;;;;;5.77;2.50;;;;;;;6.14;92.08;99257.19;5045353;28;20229;-83
2022/11/23 06:14:36;;;;;;;4.03;2.13;;;;;;;6.16;92.10;99253.50;5032517;28;20566;-83
2022/11/23 06:17:02;;;;;;;4.27;1.90;;;;;;;6.16;91.60;99258.78;5043794;28;20208;-83
2022/11/23 06:19:29;;;;;;;5.23;1.70;;;;;;;6.18;91.93;99254.25;5032758;28;20229;-83
2022/11/23 06:21:56;;;;;;;4.00;1.60;;;;;;;6.20;92.26;99257.63;5032285;28;20202;-83
2022/11/23 06:24:24;;;;;;;6.90;1.83;;;;;;;6.20;92.14;99252.34;5031067;28;20256;-83
2022/11/23 06:26:52;;;;;;;3.53;1.70;;;;;;;6.23;91.85;99254.78;5031620;28;20807;-83
2022/11/23 06:29:18;;;;;;;3.40;1.97;;;;;;;6.27;91.74;99256.25;5035459;28;20210;-83
2022/11/23 06:31:45;;;;;;;4.23;1.77;;;;;;;6.31;91.60;99263.97;5033219;28;20217;-84
2022/11/23 06:34:12;;;;;;;3.90;1.43;;;;;;;6.33;92.31;99268.22;5028282;28;20214;-84
2022/11/23 06:36:38;;;;;;;4.23;1.83;;;;;;;6.34;92.14;99272.56;5034226;28;20213;-84
2022/11/23 06:39:05;;;;;;;6.27;2.00;;;;;;;6.37;91.79;99279.44;5026695;28;20214;-82
2022/11/23 06:41:33;;;;;;;2.77;1.50;;;;;;;6.37;92.34;99290.00;5033978;28;20201;-84
2022/11/23 06:43:59;;;;;;;4.50;1.57;;;;;;;6.39;92.02;99288.97;5030288;28;20210;-84
2022/11/23 06:46:26;;;;;;;6.47;1.60;;;;;;;6.40;91.75;99285.38;5039949;28;20216;-84
2022/11/23 06:48:52;;;;;;;5.67;1.60;;;;;;;6.45;91.56;99299.09;5027183;28;20201;-84
2022/11/23 06:51:19;;;;;;;2.20;1.27;;;;;;;6.46;92.21;99290.22;5037226;28;20226;-84
2022/11/23 06:53:45;;;;;;;5.53;2.27;;;;;;;6.47;91.53;99288.44;5037586;28;20229;-84
2022/11/23 06:56:12;;;;;;;5.87;2.17;;;;;;;6.47;91.40;99293.72;5035723;28;20213;-85
2022/11/23 06:58:40;;;;;;;5.00;2.33;;;;;;;6.49;91.20;99295.31;5044407;28;20212;-84
2022/11/23 07:01:08;;;;;;;2.63;2.30;;;;;;;6.49;91.15;99295.31;5028879;28;20715;-84
2022/11/23 07:03:35;;;;;;;9.50;2.83;;;;;;;6.49;90.41;99291.81;5044938;28;20201;-81
2022/11/23 07:06:05;;;;;;;3.73;2.20;;;;;;;6.48;90.51;99298.06;5037186;28;20293;-85
2022/11/23 07:08:31;;;;;;;5.27;1.87;;;;;;;6.46;90.48;99298.16;5035700;28;20205;-84
2022/11/23 07:11:00;;;;;;;4.77;1.37;;;;;;;6.43;90.22;99303.69;5025525;28;20246;-84
2022/11/23 07:13:27;;;;;;;6.30;2.03;;;;;;;6.42;90.00;99296.69;5026284;28;20200;-85
2022/11/23 07:15:55;;;;;;;5.00;1.97;;;;;;;6.39;90.08;99302.19;5034619;28;20224;-84
2022/11/23 07:18:21;;;;;;;4.90;1.90;;;;;;;6.39;89.82;99303.97;5031314;28;20673;-84
2022/11/23 07:20:47;;;;;;;5.70;2.00;;;;;;;6.37;90.18;99312.00;5027835;28;20759;-84
2022/11/23 07:23:14;;;;;;;5.63;1.97;;;;;;;6.36;90.01;99314.75;5023375;28;20230;-84
2022/11/23 07:25:40;;;;;;;3.37;1.67;;;;;;;6.34;90.35;99311.38;5036091;28;20216;-84
2022/11/23 07:28:08;;;;;;;5.70;2.00;;;;;;;6.36;90.14;99314.75;5028043;28;20211;-84
2022/11/23 07:30:36;;;;;;;4.23;1.50;;;;;;;6.36;90.49;99322.69;5034527;28;20221;-84
2022/11/23 07:33:07;;;;;;;3.70;1.80;;;;;;;6.35;89.99;99315.72;5022862;28;20213;-85
2022/11/23 07:35:33;;;;;;;4.93;1.70;;;;;;;6.37;90.55;99324.38;5036991;28;20204;-84
2022/11/23 07:38:00;;;;;;;4.77;1.97;;;;;;;6.39;90.05;99319.84;5029307;28;20213;-84
2022/11/23 07:40:27;;;;;;;2.80;1.60;;;;;;;6.42;90.59;99322.28;5025559;28;20619;-85
2022/11/23 07:43:00;;;;;;;3.93;1.60;;;;;;;6.44;90.53;99323.88;5019972;28;20564;-85
2022/11/23 07:45:26;;;;;;;5.23;1.60;;;;;;;6.46;90.75;99329.03;5019681;28;20210;-85
2022/11/23 07:47:58;;;;;;;5.87;1.60;;;;;;;6.48;90.72;99317.41;5019629;28;20801;-84
2022/11/23 07:50:26;;;;;;;3.27;1.53;;;;;;;6.50;90.60;99322.59;5027330;28;20225;-84
2022/11/23 07:52:53;;;;;;;5.43;1.63;;;;;;;6.55;90.38;99324.00;5024631;28;20214;-85
2022/11/23 07:55:19;;;;;;;3.07;1.40;;;;;;;6.60;90.84;99324.53;5025637;28;20207;-85
2022/11/23 07:57:46;;;;;;;6.87;1.87;;;;;;;6.64;90.72;99330.44;5029926;28;20234;-84
2022/11/23 08:00:13;;;;;;;8.90;2.03;;;;;;;6.66;90.59;99322.41;5026069;28;20807;-84
2022/11/23 08:02:40;;;;;;;5.77;1.70;;;;;;;6.69;90.82;99325.69;5023445;28;20198;-84
2022/11/23 08:05:07;;;;;;;6.17;1.80;;;;;;;6.73;90.60;99324.53;5027397;28;20210;-84
2022/11/23 08:07:35;;;;;;;12.27;2.13;;;;;;;6.75;90.18;99327.94;5026006;28;20205;-84
2022/11/23 08:10:01;;;;;;;4.17;1.80;;;;;;;6.79;90.09;99334.72;5021399;28;20249;-84
2022/11/23 08:12:28;;;;;;;4.83;1.73;;;;;;;6.81;89.98;99338.06;5032327;28;20224;-84
2022/11/23 08:14:54;;;;;;;5.87;1.60;;;;;;;6.83;90.29;99338.81;5025219;28;20206;-84
2022/11/23 08:17:21;;;;;;;2.47;1.40;;;;;;;6.86;90.25;99332.47;5032944;28;20207;-84
2022/11/23 08:19:47;;;;;;;5.03;1.83;;;;;;;6.90;89.43;99341.91;5033363;28;20237;-84
2022/11/23 08:22:14;;;;;;;4.03;1.40;;;;;;;6.95;90.00;99342.44;5039883;28;20197;-85
2022/11/23 08:24:42;;;;;;;5.70;2.30;;;;;;;6.98;89.89;99342.22;5034483;28;20210;-84
2022/11/23 08:27:08;;;;;;;4.00;1.47;;;;;;;7.03;89.18;99339.25;5044303;28;20205;-85
2022/11/23 08:29:35;;;;;;;6.00;1.43;;;;;;;7.06;88.90;99331.94;5033137;28;20225;-83
2022/11/23 08:32:02;;;;;;;4.43;1.70;;;;;;;7.10;89.28;99340.53;5042544;28;20227;-85
2022/11/23 08:34:28;;;;;;;5.33;1.77;;;;;;;7.13;89.32;99337.66;5044632;28;20221;-84
2022/11/23 08:36:55;;;;;;;4.90;1.50;;;;;;;7.16;89.19;99342.75;5039770;28;20649;-84
2022/11/23 08:39:21;;;;;;;6.57;2.37;;;;;;;7.20;88.29;99346.84;5043989;28;20578;-82
2022/11/23 08:41:49;;;;;;;5.47;2.93;;;;;;;7.25;88.36;99347.38;5040863;28;20213;-82
2022/11/23 08:44:16;;;;;;;7.10;3.97;;;;;;;7.28;87.81;99348.03;5041940;28;20601;-84
2022/11/23 08:46:42;;;;;;;6.37;2.97;;;;;;;7.33;87.82;99347.72;5047633;28;20640;-84
2022/11/23 08:49:08;;;;;;;8.00;4.40;;;;;;;7.34;88.23;99341.47;5032218;28;20819;-83
2022/11/23 08:51:35;;;;;;;3.70;1.80;;;;;;;7.36;87.99;99339.50;5038129;28;20617;-82
2022/11/23 08:54:01;;;;;;;3.47;1.43;;;;;;;7.41;87.81;99342.69;5041054;28;20214;-82
2022/11/23 08:56:28;;;;;;;4.70;2.00;;;;;;;7.44;87.18;99344.28;5043067;28;20217;-82
2022/11/23 08:58:56;;;;;;;3.60;1.90;;;;;;;7.48;87.52;99340.47;5046352;28;21074;-83
2022/11/23 09:01:22;;;;;;;3.97;1.97;;;;;;;7.49;87.46;99345.66;5040939;28;20218;-85
2022/11/23 09:03:49;;;;;;;3.50;1.70;;;;;;;7.55;86.90;99344.34;5038898;28;20206;-85
2022/11/23 09:06:15;;;;;;;4.67;1.80;;;;;;;7.60;86.69;99347.53;5044214;28;20221;-85
2022/11/23 09:08:42;;;;;;;5.93;2.53;;;;;;;7.63;86.76;99352.63;5034689;28;20205;-85
2022/11/23 09:11:12;;;;;;;4.27;2.00;;;;;;;7.66;86.30;99350.59;5032155;28;20230;-82
2022/11/23 09:13:39;;;;;;;6.40;3.50;;;;;;;7.69;86.45;99352.19;5032064;28;20209;-84
2022/11/23 09:16:07;;;;;;;5.77;2.30;;;;;;;7.73;85.45;99352.78;5040516;28;20206;-84
2022/11/23 09:18:35;;;;;;;4.37;1.70;;;;;;;7.75;86.10;99354.38;5021961;28;20209;-84
2022/11/23 09:21:02;;;;;;;4.80;1.80;;;;;;;7.80;86.21;99354.03;5034721;28;20226;-84
2022/11/23 09:23:28;;;;;;;4.80;1.90;;;;;;;7.83;85.44;99367.09;5037268;28;20766;-83
2022/11/23 09:25:58;;;;;;;8.97;4.07;;;;;;;7.87;84.71;99360.59;5032289;28;20221;-82
2022/11/23 09:28:26;;;;;;;5.70;2.77;;;;;;;7.91;85.20;99368.19;5039416;28;20567;-84
2022/11/23 09:30:53;;;;;;;4.27;1.93;;;;;;;7.95;85.59;99367.03;5029538;28;20686;-84
2022/11/23 09:33:21;;;;;;;6.03;3.10;;;;;;;7.98;84.69;99368.63;5038516;28;20222;-84
2022/11/23 09:35:55;;;;;;;8.37;3.97;;;;;;;8.01;84.37;99358.63;5032835;28;20194;-84
2022/11/23 09:38:22;;;;;;;4.13;1.60;;;;;;;8.05;84.82;99364.56;5040703;28;20198;-84
2022/11/23 09:40:59;;;;;;;6.53;2.70;;;;;;;8.09;83.77;99362.50;5035845;28;20712;-84
2022/11/23 09:43:43;;;;;;;5.80;2.40;;;;;;;8.13;84.18;99366.63;5029693;28;20306;-84
2022/11/23 09:46:18;;;;;;;3.90;1.87;;;;;;;8.15;84.44;99364.72;5038852;28;20214;-84
2022/11/23 09:49:01;;;;;;;4.53;1.93;;;;;;;8.17;84.04;99376.91;5030063;28;21103;-85
2022/11/23 09:51:28;;;;;;;4.37;1.60;;;;;;;8.20;83.57;99370.53;5021231;28;20230;-85
2022/11/23 09:53:58;;;;;;;4.13;1.53;;;;;;;8.24;83.26;99370.19;5023777;28;20203;-85
2022/11/23 09:56:28;;;;;;;3.43;1.50;;;;;;;8.27;83.98;99364.66;5023069;28;20195;-84
2022/11/23 09:58:57;;;;;;;3.57;1.57;;;;;;;8.32;83.38;99369.66;5037779;28;20554;-84
2022/11/23 10:01:25;;;;;;;6.13;1.37;;;;;;;8.34;83.26;99373.88;5022868;28;20226;-85
2022/11/23 10:03:54;;;;;;;6.90;2.03;;;;;;;8.38;83.11;99371.00;5024035;28;20260;-84
2022/11/23 10:06:24;;;;;;;1.83;1.40;;;;;;;8.39;83.76;99376.22;5022326;28;20217;-84
2022/11/23 10:09:23;;;;;;;7.17;1.60;;;;;;;8.44;83.67;99373.19;5027772;28;20205;-81
2022/11/23 10:12:10;;;;;;;5.73;1.73;;;;;;;8.46;83.26;99372.13;5019806;28;20222;-84
2022/11/23 10:14:51;;;;;;;4.80;1.97;;;;;;;8.50;83.05;99370.09;5020820;28;20198;-83
2022/11/23 10:17:27;;;;;;;4.47;1.30;;;;;;;8.54;82.55;99376.88;5022942;28;20206;-83
2022/11/23 10:20:15;;;;;;;2.20;1.30;;;;;;;8.57;82.49;99377.47;5023999;28;20711;-84
2022/11/23 10:22:51;;;;;;;4.03;1.40;;;;;;;8.59;82.04;99385.34;5016704;28;20278;-84
2022/11/23 10:25:20;;;;;;;4.33;1.47;;;;;;;8.62;82.53;99382.44;5023588;28;20229;-84
2022/11/23 10:27:49;;;;;;;9.07;2.43;;;;;;;8.64;81.98;99386.66;5020668;28;20209;-84
2022/11/23 10:30:18;;;;;;;1.63;1.27;;;;;;;8.66;82.37;99386.53;5026907;28;20222;-84
2022/11/23 10:32:48;;;;;;;3.90;1.47;;;;;;;8.68;82.01;99392.59;5020015;28;20226;-84
2022/11/23 10:35:18;;;;;;;3.83;1.23;;;;;;;8.69;81.80;99384.50;5028012;28;20205;-83
2022/11/23 10:37:45;;;;;;;5.60;2.47;;;;;;;8.72;81.66;99386.09;5023166;28;20207;-83
2022/11/23 10:40:17;;;;;;;6.13;1.33;;;;;;;8.76;81.81;99389.38;5024921;28;20237;-83
2022/11/23 10:42:47;;;;;;;4.67;1.20;;;;;;;8.77;81.29;99388.41;5028460;28;20202;-83
2022/11/23 10:45:20;;;;;;;2.60;1.30;;;;;;;8.79;81.62;99389.09;5020584;28;20226;-83
2022/11/23 10:47:51;;;;;;;4.17;1.90;;;;;;;8.80;80.94;99393.47;5026635;28;20230;-84
2022/11/23 10:50:25;;;;;;;5.40;1.57;;;;;;;8.80;81.71;99391.66;5026109;28;20235;-83
2022/11/23 10:52:55;;;;;;;5.50;1.40;;;;;;;8.85;80.98;99399.28;5021947;28;20692;-83
2022/11/23 10:55:26;;;;;;;5.27;1.50;;;;;;;8.86;81.74;99393.00;5025968;28;20209;-84
2022/11/23 10:57:55;;;;;;;5.33;1.83;;;;;;;8.88;81.65;99393.75;5014518;28;20573;-83
2022/11/23 11:00:23;;;;;;;4.50;1.40;;;;;;;8.91;81.05;99386.38;5019889;28;20231;-83
2022/11/23 11:02:53;;;;;;;2.50;1.30;;;;;;;8.93;81.12;99396.91;5023973;28;20207;-84
2022/11/23 11:05:32;;;;;;;5.73;1.60;;;;;;;8.96;80.92;99392.16;5022629;28;20573;-83
2022/11/23 11:08:01;;;;;;;4.53;1.77;;;;;;;8.97;80.44;99388.56;5028696;28;20202;-84
2022/11/23 11:10:37;;;;;;;4.07;1.40;;;;;;;9.00;80.89;99384.81;5041836;28;20241;-84
2022/11/23 11:13:20;;;;;;;3.03;1.30;;;;;;;9.02;80.60;99383.75;5042917;28;20211;-83
2022/11/23 11:15:52;;;;;;;3.60;1.47;;;;;;;9.05;80.63;99385.31;5032131;28;20197;-83
2022/11/23 11:18:19;;;;;;;3.80;1.47;;;;;;;9.09;80.82;99378.81;5031659;28;20209;-84
2022/11/23 11:20:47;;;;;;;3.37;1.67;;;;;;;9.10;81.16;99380.50;5031927;28;20236;-84
2022/11/23 11:23:18;;;;;;;3.93;1.50;;;;;;;9.11;81.15;99374.22;5025903;28;20214;-83
2022/11/23 11:25:45;;;;;;;4.23;1.20;;;;;;;9.14;80.69;99375.78;5035598;28;20197;-84
2022/11/23 11:28:21;;;;;;;2.87;1.27;;;;;;;9.17;80.33;99380.84;5034361;28;20206;-83
2022/11/23 11:30:59;;;;;;;3.63;1.10;;;;;;;9.20;80.04;99370.84;5026125;28;20245;-83
2022/11/23 11:33:32;;;;;;;3.27;1.30;;;;;;;9.20;79.11;99375.31;5034908;28;20685;-84
2022/11/23 11:36:02;;;;;;;3.47;1.70;;;;;;;9.22;79.17;99373.38;5036599;28;20198;-84
2022/11/23 11:38:33;;;;;;;5.87;2.03;;;;;;;9.24;78.83;99360.84;5036438;28;20222;-84
2022/11/23 11:41:05;;;;;;;4.13;2.60;;;;;;;9.27;78.95;99373.88;5027772;28;20245;-83
2022/11/23 11:43:37;;;;;;;4.33;1.60;;;;;;;9.29;78.31;99372.81;5031456;28;20214;-83
2022/11/23 11:46:09;;;;;;;7.20;1.70;;;;;;;9.30;78.56;99371.00;5035015;28;20537;-84